Time;durP1;ratioP1;P1;durP2;ratioP2;P2;SDS_P1;SDS_P2;PMS_P1;PMS_P2;Temp;Humidity;BMP_temperature;BMP_pressure;BME280_temperature;BME280_humidity;BME280_pressure;Samples;Min_cycle;Max_cycle;Signal;HPM_P1;HPM_P2
2022/01/23 00:00:26;;;;;;;6.70;4.35;;;;;;;;;;143726;598;46012;-56
2022/01/23 00:02:59;;;;;;;6.18;3.97;;;;;;;;;;143727;609;45911;-56
2022/01/23 00:05:33;;;;;;;7.68;4.37;;;;;;;;;;143729;593;46020;-56
2022/01/23 00:08:01;;;;;;;8.02;4.22;;;;;;;;;;143728;607;46012;-55
2022/01/23 00:10:28;;;;;;;6.40;3.97;;;;;;;;;;143727;577;46031;-56
2022/01/23 00:13:07;;;;;;;5.55;4.00;;;;;;;;;;143727;564;46032;-56
2022/01/23 00:18:20;;;;;;;5.67;3.93;;;;;;;;;;143728;579;45021;-56
2022/01/23 00:20:48;;;;;;;7.70;4.03;;;;;;;;;;143726;570;46012;-55
2022/01/23 00:23:29;;;;;;;7.85;4.62;;;;;;;;;;143724;591;46020;-56
2022/01/23 00:31:30;;;;;;;5.32;3.50;;;;;;;;;;143724;630;47021;-57
2022/01/23 00:33:58;;;;;;;6.32;3.95;;;;;;;;;;143728;694;45913;-56
2022/01/23 00:36:28;;;;;;;7.12;4.00;;;;;;;;;;143730;595;46012;-55
2022/01/23 00:38:56;;;;;;;6.60;3.67;;;;;;;;;;143725;685;47021;-55
2022/01/23 00:41:23;;;;;;;8.45;4.20;;;;;;;;;;143729;566;46012;-57
2022/01/23 00:43:52;;;;;;;6.40;3.92;;;;;;;;;;143729;572;45020;-56
2022/01/23 00:46:24;;;;;;;6.62;4.50;;;;;;;;;;143729;590;46013;-57
2022/01/23 00:51:46;;;;;;;8.75;5.18;;;;;;;;;;143723;606;47020;-56
2022/01/23 00:54:13;;;;;;;9.23;5.53;;;;;;;;;;143728;569;45021;-57
2022/01/23 00:56:40;;;;;;;9.57;5.45;;;;;;;;;;143728;592;47012;-57
2022/01/23 00:59:07;;;;;;;7.43;4.93;;;;;;;;;;143724;597;47020;-56
2022/01/23 01:01:34;;;;;;;8.98;5.05;;;;;;;;;;143726;589;46012;-56
2022/01/23 01:04:04;;;;;;;8.93;5.37;;;;;;;;;;143729;574;45021;-56
2022/01/23 01:06:31;;;;;;;7.43;4.97;;;;;;;;;;143730;741;46012;-57
2022/01/23 01:09:03;;;;;;;8.65;5.03;;;;;;;;;;143725;613;47022;-56
2022/01/23 01:14:55;;;;;;;8.43;5.43;;;;;;;;;;143727;581;46022;-57
2022/01/23 01:17:35;;;;;;;7.50;4.80;;;;;;;;;;143730;593;46018;-56
2022/01/23 01:31:18;;;;;;;6.15;4.10;;;;;;;;;;143729;577;45908;-56
2022/01/23 01:33:55;;;;;;;5.15;3.95;;;;;;;;;;143725;611;47917;-56
2022/01/23 01:36:33;;;;;;;6.28;3.78;;;;;;;;;;143728;716;45911;-56
2022/01/23 01:39:00;;;;;;;5.22;3.62;;;;;;;;;;143730;594;46020;-56
2022/01/23 01:41:27;;;;;;;5.93;4.10;;;;;;;;;;143725;597;47023;-55
2022/01/23 01:43:56;;;;;;;5.35;3.90;;;;;;;;;;143726;565;46028;-56
2022/01/23 01:46:23;;;;;;;6.87;4.15;;;;;;;;;;143729;594;45021;-55
2022/01/23 01:48:50;;;;;;;5.07;3.67;;;;;;;;;;143730;577;46020;-56
2022/01/23 01:51:18;;;;;;;5.28;3.70;;;;;;;;;;143725;569;47022;-55
2022/01/23 01:54:02;;;;;;;8.85;4.40;;;;;;;;;;143727;602;46916;-55
2022/01/23 01:56:36;;;;;;;4.87;3.80;;;;;;;;;;143728;603;45911;-56
2022/01/23 01:59:23;;;;;;;5.78;3.80;;;;;;;;;;143730;619;46020;-55
2022/01/23 02:10:07;;;;;;;5.87;3.97;;;;;;;;;;143730;759;46033;-56
2022/01/23 02:16:05;;;;;;;5.70;3.45;;;;;;;;;;143728;574;46012;-57
2022/01/23 02:22:28;;;;;;;7.10;4.90;;;;;;;;;;143725;564;47021;-55
2022/01/23 02:24:34;;;;;;;5.90;3.75;;;;;;;;;;143727;627;47021;-56
2022/01/23 02:54:51;;;;;;;4.93;3.65;;;;;;;;;;143731;640;46013;-56
2022/01/23 02:57:22;;;;;;;5.70;3.85;;;;;;;;;;143727;637;46012;-56
2022/01/23 02:59:54;;;;;;;4.87;3.92;;;;;;;;;;143727;567;46013;-56
2022/01/23 03:02:33;;;;;;;6.30;3.95;;;;;;;;;;143729;686;45039;-56
2022/01/23 03:05:02;;;;;;;4.78;3.67;;;;;;;;;;143728;725;46012;-57
2022/01/23 03:07:49;;;;;;;6.18;4.00;;;;;;;;;;143726;564;47021;-56
2022/01/23 03:10:30;;;;;;;4.70;3.83;;;;;;;;;;143723;599;49012;-56
2022/01/23 03:24:05;;;;;;;5.72;3.80;;;;;;;;;;143730;617;46019;-56
2022/01/23 03:30:27;;;;;;;4.75;3.70;;;;;;;;;;143728;601;46012;-55
2022/01/23 03:32:54;;;;;;;4.45;3.55;;;;;;;;;;143725;690;47012;-55
2022/01/23 03:35:23;;;;;;;6.05;3.92;;;;;;;;;;143729;591;45020;-56
2022/01/23 03:37:53;;;;;;;9.30;4.37;;;;;;;;;;143730;576;46020;-56
2022/01/23 03:40:23;;;;;;;8.00;4.03;;;;;;;;;;143724;578;47020;-55
2022/01/23 03:42:56;;;;;;;5.35;3.92;;;;;;;;;;143725;571;47012;-55
2022/01/23 03:51:02;;;;;;;5.47;4.10;;;;;;;;;;143728;581;46012;-55
2022/01/23 03:53:29;;;;;;;5.15;3.53;;;;;;;;;;143726;598;46013;-56
2022/01/23 03:55:57;;;;;;;5.30;3.83;;;;;;;;;;143728;565;45021;-56
2022/01/23 03:58:27;;;;;;;6.20;3.65;;;;;;;;;;143730;600;46012;-56
2022/01/23 04:00:54;;;;;;;4.78;3.50;;;;;;;;;;143725;603;47021;-55
2022/01/23 04:03:21;;;;;;;5.35;3.87;;;;;;;;;;143726;573;46012;-56
2022/01/23 04:05:50;;;;;;;5.80;4.32;;;;;;;;;;143728;577;45020;-56
2022/01/23 04:08:18;;;;;;;10.68;3.97;;;;;;;;;;143730;576;46013;-56
2022/01/23 04:10:45;;;;;;;4.10;3.62;;;;;;;;;;143725;566;47023;-55
2022/01/23 04:13:19;;;;;;;6.03;4.35;;;;;;;;;;143728;579;46012;-55
2022/01/23 04:16:08;;;;;;;6.20;3.83;;;;;;;;;;143729;669;45021;-56
2022/01/23 04:35:44;;;;;;;6.62;4.00;;;;;;;;;;143756;683;45917;-55
2022/01/23 05:00:09;;;;;;;6.80;4.47;;;;;;;;;;143758;578;44022;-56
2022/01/23 05:05:26;;;;;;;5.45;4.05;;;;;;;;;;143758;569;45014;-56
2022/01/23 05:07:57;;;;;;;5.35;3.80;;;;;;;;;;143756;611;45918;-55
2022/01/23 05:10:24;;;;;;;4.50;3.58;;;;;;;;;;143758;567;44912;-55
2022/01/23 05:12:51;;;;;;;5.47;4.03;;;;;;;;;;143760;564;45012;-55
2022/01/23 05:15:18;;;;;;;5.62;3.97;;;;;;;;;;143754;571;46022;-55
2022/01/23 05:17:50;;;;;;;5.30;3.67;;;;;;;;;;143755;580;45919;-55
2022/01/23 05:20:19;;;;;;;7.55;3.72;;;;;;;;;;143756;563;44912;-56
2022/01/23 05:22:49;;;;;;;5.53;3.85;;;;;;;;;;143759;590;45020;-55
2022/01/23 05:25:26;;;;;;;6.70;4.18;;;;;;;;;;143754;564;46020;-55
2022/01/23 05:27:54;;;;;;;7.60;4.15;;;;;;;;;;143741;588;46012;-55
2022/01/23 05:30:21;;;;;;;6.05;3.87;;;;;;;;;;143730;578;46039;-56
2022/01/23 05:32:48;;;;;;;6.00;3.50;;;;;;;;;;143731;599;46022;-56
2022/01/23 05:35:22;;;;;;;7.00;3.95;;;;;;;;;;143725;603;47020;-55
2022/01/23 05:37:49;;;;;;;6.68;4.12;;;;;;;;;;143729;572;46013;-55
2022/01/23 05:40:18;;;;;;;5.43;3.58;;;;;;;;;;143730;594;45018;-56
2022/01/23 05:42:45;;;;;;;6.30;3.75;;;;;;;;;;143730;576;46022;-55
2022/01/23 05:45:13;;;;;;;5.68;4.30;;;;;;;;;;143727;567;47018;-56
2022/01/23 05:47:39;;;;;;;8.50;5.47;;;;;;;;;;143726;594;47012;-55
2022/01/23 05:50:07;;;;;;;8.20;4.72;;;;;;;;;;143730;580;45018;-55
2022/01/23 05:52:36;;;;;;;6.45;4.72;;;;;;;;;;143731;585;46013;-56
2022/01/23 05:55:05;;;;;;;6.80;4.97;;;;;;;;;;143726;582;47018;-56
2022/01/23 05:57:32;;;;;;;10.35;7.97;;;;;;;;;;143727;586;46031;-56
2022/01/23 05:59:59;;;;;;;14.68;11.80;;;;;;;;;;143729;592;45019;-56
2022/01/23 06:02:26;;;;;;;8.73;5.30;;;;;;;;;;143730;597;46023;-55
2022/01/23 06:04:53;;;;;;;7.18;4.80;;;;;;;;;;143726;575;47018;-57
2022/01/23 06:07:20;;;;;;;9.27;4.80;;;;;;;;;;143725;604;47013;-56
2022/01/23 06:09:49;;;;;;;6.68;4.55;;;;;;;;;;143730;601;45018;-56
2022/01/23 06:12:16;;;;;;;6.80;4.50;;;;;;;;;;143731;638;46022;-55
2022/01/23 06:14:43;;;;;;;9.63;5.85;;;;;;;;;;143726;566;47019;-55
2022/01/23 06:17:10;;;;;;;16.73;14.20;;;;;;;;;;143727;611;46012;-56
2022/01/23 06:19:39;;;;;;;11.40;9.20;;;;;;;;;;143729;593;45018;-55
2022/01/23 06:22:08;;;;;;;10.82;7.03;;;;;;;;;;143731;577;46022;-55
2022/01/23 06:24:37;;;;;;;10.10;7.47;;;;;;;;;;143728;593;47018;-56
2022/01/23 06:27:04;;;;;;;9.60;6.75;;;;;;;;;;143724;597;47012;-56
2022/01/23 06:29:31;;;;;;;9.82;5.93;;;;;;;;;;143731;569;45019;-56
2022/01/23 06:34:05;;;;;;;;;;;;;;;;;;143850;965;45022;-57
2022/01/23 06:36:33;;;;;;;7.12;4.97;;;;;;;;;;143746;585;46012;-56
2022/01/23 06:39:01;;;;;;;7.25;5.20;;;;;;;;;;143739;591;47022;-57
2022/01/23 06:41:28;;;;;;;7.00;4.82;;;;;;;;;;143738;588;46012;-56
2022/01/23 06:43:55;;;;;;;6.72;4.93;;;;;;;;;;143734;571;45020;-55
2022/01/23 06:46:22;;;;;;;7.28;5.05;;;;;;;;;;143737;570;46021;-56
2022/01/23 06:48:49;;;;;;;7.12;4.75;;;;;;;;;;143733;569;47020;-57
2022/01/23 06:51:17;;;;;;;6.45;4.53;;;;;;;;;;143734;606;46012;-56
2022/01/23 06:53:44;;;;;;;7.35;4.30;;;;;;;;;;143735;590;45021;-56
2022/01/23 06:56:11;;;;;;;6.53;4.28;;;;;;;;;;143737;595;46020;-56
2022/01/23 06:58:38;;;;;;;7.20;4.53;;;;;;;;;;143740;600;47020;-56
2022/01/23 07:01:07;;;;;;;7.93;4.35;;;;;;;;;;143734;598;46013;-56
2022/01/23 07:03:37;;;;;;;11.80;5.03;;;;;;;;;;143735;699;45020;-55
2022/01/23 07:06:05;;;;;;;6.55;4.47;;;;;;;;;;143738;772;46020;-55
2022/01/23 07:08:32;;;;;;;5.75;3.97;;;;;;;;;;143731;572;47021;-55
2022/01/23 07:11:00;;;;;;;6.60;4.80;;;;;;;;;;143735;573;47012;-56
2022/01/23 07:13:27;;;;;;;5.70;4.35;;;;;;;;;;143736;570;45020;-56
2022/01/23 07:15:55;;;;;;;8.43;4.85;;;;;;;;;;143737;585;46020;-56
2022/01/23 07:18:22;;;;;;;6.82;4.15;;;;;;;;;;143733;604;47020;-56
2022/01/23 07:20:49;;;;;;;8.23;4.78;;;;;;;;;;143731;582;47012;-56
2022/01/23 07:23:22;;;;;;;10.90;4.30;;;;;;;;;;143734;603;45021;-56
2022/01/23 07:25:50;;;;;;;6.25;4.18;;;;;;;;;;143738;601;46012;-56
2022/01/23 07:28:19;;;;;;;6.55;4.43;;;;;;;;;;143733;663;47020;-56
2022/01/23 07:30:52;;;;;;;6.22;4.15;;;;;;;;;;143731;587;47012;-57
2022/01/23 07:33:19;;;;;;;10.25;4.12;;;;;;;;;;143734;587;45020;-56
2022/01/23 07:35:48;;;;;;;6.50;4.18;;;;;;;;;;143735;585;47012;-56
2022/01/23 07:38:18;;;;;;;8.40;4.50;;;;;;;;;;143732;590;47021;-56
2022/01/23 07:40:48;;;;;;;6.70;4.07;;;;;;;;;;143736;624;46012;-57
2022/01/23 07:43:15;;;;;;;8.23;4.57;;;;;;;;;;143735;608;45020;-57
2022/01/23 07:45:43;;;;;;;6.47;4.15;;;;;;;;;;143738;564;46013;-55
2022/01/23 07:48:10;;;;;;;6.70;4.18;;;;;;;;;;143732;648;47023;-56
2022/01/23 07:50:38;;;;;;;6.45;4.10;;;;;;;;;;143739;668;46012;-56
2022/01/23 07:53:05;;;;;;;5.10;3.70;;;;;;;;;;143735;581;45021;-55
2022/01/23 07:55:32;;;;;;;5.87;3.83;;;;;;;;;;143738;573;46012;-56
2022/01/23 07:58:05;;;;;;;4.78;3.47;;;;;;;;;;143734;584;47020;-55
2022/01/23 08:00:33;;;;;;;5.72;3.83;;;;;;;;;;143734;592;46013;-57
2022/01/23 08:03:00;;;;;;;6.85;3.85;;;;;;;;;;143735;717;45021;-56
2022/01/23 08:05:27;;;;;;;6.50;4.15;;;;;;;;;;143737;590;46020;-55
2022/01/23 08:07:54;;;;;;;6.62;4.10;;;;;;;;;;143736;564;46049;-55
2022/01/23 08:10:21;;;;;;;5.80;3.90;;;;;;;;;;143735;658;46012;-55
2022/01/23 08:12:48;;;;;;;5.65;4.15;;;;;;;;;;143736;578;45020;-56
2022/01/23 08:15:15;;;;;;;7.47;3.97;;;;;;;;;;143738;569;46012;-55
2022/01/23 08:17:42;;;;;;;6.75;3.85;;;;;;;;;;143730;598;47023;-56
2022/01/23 08:20:10;;;;;;;6.78;4.18;;;;;;;;;;143734;582;46012;-56
2022/01/23 08:22:37;;;;;;;5.78;4.00;;;;;;;;;;143734;589;46014;-56
2022/01/23 08:25:05;;;;;;;5.57;3.85;;;;;;;;;;143738;587;46012;-56
2022/01/23 08:27:32;;;;;;;6.87;4.50;;;;;;;;;;143732;590;47020;-57
2022/01/23 08:29:59;;;;;;;6.47;4.25;;;;;;;;;;143733;576;46013;-56
2022/01/23 08:32:26;;;;;;;8.65;5.35;;;;;;;;;;143736;572;45021;-56
2022/01/23 08:34:54;;;;;;;6.80;4.70;;;;;;;;;;143739;587;46012;-56
2022/01/23 08:37:21;;;;;;;8.40;4.20;;;;;;;;;;143732;586;47022;-56
2022/01/23 08:39:48;;;;;;;7.03;4.00;;;;;;;;;;143734;663;46012;-56
2022/01/23 08:42:17;;;;;;;5.20;4.05;;;;;;;;;;143735;614;45036;-56
2022/01/23 08:44:46;;;;;;;6.25;4.20;;;;;;;;;;143737;564;46020;-56
2022/01/23 08:47:13;;;;;;;6.55;4.35;;;;;;;;;;143732;623;47023;-57
2022/01/23 08:49:48;;;;;;;6.90;4.82;;;;;;;;;;143733;597;46010;-57
2022/01/23 08:52:17;;;;;;;9.65;4.53;;;;;;;;;;143735;564;45020;-57
2022/01/23 08:54:52;;;;;;;21.35;12.18;;;;;;;;;;143737;606;46021;-58
2022/01/23 08:57:20;;;;;;;8.82;4.03;;;;;;;;;;143735;695;45913;-56
2022/01/23 08:59:47;;;;;;;7.75;4.03;;;;;;;;;;143735;578;46019;-55
2022/01/23 09:02:14;;;;;;;5.15;3.85;;;;;;;;;;143735;578;45021;-56
2022/01/23 09:04:41;;;;;;;4.37;3.28;;;;;;;;;;143738;584;46020;-55
2022/01/23 09:07:08;;;;;;;6.28;3.97;;;;;;;;;;143732;575;47031;-57
2022/01/23 09:09:38;;;;;;;6.12;3.65;;;;;;;;;;143734;580;46010;-56
2022/01/23 09:12:20;;;;;;;7.30;3.75;;;;;;;;;;143734;575;45909;-56
2022/01/23 09:14:48;;;;;;;7.87;4.50;;;;;;;;;;143737;602;46012;-56
2022/01/23 09:17:15;;;;;;;14.80;7.47;;;;;;;;;;143733;593;47020;-56
2022/01/23 09:19:45;;;;;;;6.62;3.65;;;;;;;;;;143738;577;46010;-56
2022/01/23 09:22:12;;;;;;;5.28;3.40;;;;;;;;;;143735;564;45021;-56
2022/01/23 09:24:39;;;;;;;5.78;3.97;;;;;;;;;;143738;586;46012;-56
2022/01/23 09:27:08;;;;;;;5.68;3.85;;;;;;;;;;143732;591;47020;-57
2022/01/23 09:29:38;;;;;;;6.20;4.00;;;;;;;;;;143735;587;46011;-56
2022/01/23 09:32:09;;;;;;;6.28;3.87;;;;;;;;;;143736;569;45021;-56
2022/01/23 09:34:37;;;;;;;6.18;4.32;;;;;;;;;;143738;598;46012;-56
2022/01/23 09:37:06;;;;;;;6.60;4.20;;;;;;;;;;143732;569;47021;-56
2022/01/23 09:39:34;;;;;;;9.10;5.25;;;;;;;;;;143736;622;46020;-57
2022/01/23 09:42:11;;;;;;;6.97;4.30;;;;;;;;;;143738;606;45020;-56
2022/01/23 09:45:04;;;;;;;6.37;4.57;;;;;;;;;;143737;593;46020;-56
2022/01/23 09:47:32;;;;;;;12.30;7.90;;;;;;;;;;143733;636;47020;-57
2022/01/23 09:50:03;;;;;;;8.70;5.03;;;;;;;;;;143735;604;46010;-56
2022/01/23 09:52:33;;;;;;;6.85;4.45;;;;;;;;;;143738;606;45021;-57
2022/01/23 09:55:07;;;;;;;17.77;11.30;;;;;;;;;;143738;585;46012;-57
2022/01/23 09:57:36;;;;;;;12.95;7.62;;;;;;;;;;143734;584;47020;-57
2022/01/23 10:00:07;;;;;;;19.15;11.43;;;;;;;;;;143731;682;46021;-56
2022/01/23 10:02:34;;;;;;;10.85;7.72;;;;;;;;;;143738;590;45021;-57
2022/01/23 10:05:02;;;;;;;13.05;7.62;;;;;;;;;;143738;627;46020;-57
2022/01/23 10:07:30;;;;;;;9.15;6.53;;;;;;;;;;143732;579;47021;-57
2022/01/23 10:10:09;;;;;;;5.97;4.03;;;;;;;;;;143735;605;46010;-56
2022/01/23 10:12:39;;;;;;;6.72;4.15;;;;;;;;;;143734;581;46910;-57
2022/01/23 10:15:07;;;;;;;39.90;22.60;;;;;;;;;;143736;569;46021;-56
2022/01/23 10:17:34;;;;;;;22.42;13.40;;;;;;;;;;143733;590;47023;-56
2022/01/23 10:20:01;;;;;;;15.35;8.70;;;;;;;;;;143737;566;46010;-57
2022/01/23 10:22:30;;;;;;;12.77;6.15;;;;;;;;;;143737;594;45021;-56
2022/01/23 10:25:17;;;;;;;57.50;31.02;;;;;;;;;;143738;695;46020;-57
2022/01/23 10:28:10;;;;;;;6.57;4.10;;;;;;;;;;143733;596;47020;-57
2022/01/23 10:30:49;;;;;;;19.20;10.15;;;;;;;;;;143733;566;46020;-57
2022/01/23 10:33:25;;;;;;;16.48;7.82;;;;;;;;;;143734;572;45020;-57
2022/01/23 10:35:59;;;;;;;;;;;;;;;;;;143742;982;46020;-57
2022/01/23 10:38:30;;;;;;;24.37;13.82;;;;;;;;;;143739;575;46041;-57
2022/01/23 10:41:43;;;;;;;14.35;8.88;;;;;;;;;;143733;651;46028;-57
2022/01/23 10:47:44;;;;;;;18.35;11.40;;;;;;;;;;143736;571;47020;-58
2022/01/23 10:50:09;;;;;;;12.68;7.47;;;;;;;;;;143735;597;46010;-58
2022/01/23 10:52:47;;;;;;;15.63;9.48;;;;;;;;;;143733;660;46010;-59
2022/01/23 10:55:35;;;;;;;13.77;7.55;;;;;;;;;;143735;605;45020;-59
2022/01/23 10:58:06;;;;;;;8.32;4.80;;;;;;;;;;143737;573;46010;-59
2022/01/23 11:00:39;;;;;;;7.72;4.93;;;;;;;;;;143733;573;47022;-58
2022/01/23 11:03:23;;;;;;;12.73;6.60;;;;;;;;;;143735;587;46010;-59
2022/01/23 11:05:52;;;;;;;7.47;5.03;;;;;;;;;;143734;572;45020;-58
2022/01/23 11:08:30;;;;;;;9.88;5.65;;;;;;;;;;143738;608;46010;-58
2022/01/23 11:11:03;;;;;;;9.25;6.28;;;;;;;;;;143734;570;45022;-58
2022/01/23 11:19:23;;;;;;;41.78;22.52;;;;;;;;;;143736;569;47010;-58
2022/01/23 11:21:53;;;;;;;15.57;9.55;;;;;;;;;;143730;648;47021;-58
2022/01/23 11:24:34;;;;;;;9.52;5.82;;;;;;;;;;143733;576;46028;-58
2022/01/23 11:27:02;;;;;;;20.05;12.45;;;;;;;;;;143734;581;45020;-58
2022/01/23 11:29:31;;;;;;;14.98;9.07;;;;;;;;;;143737;621;46011;-58
2022/01/23 11:31:58;;;;;;;11.12;7.25;;;;;;;;;;143732;589;47020;-58
2022/01/23 11:34:28;;;;;;;10.93;7.37;;;;;;;;;;143735;587;46010;-58
2022/01/23 11:36:55;;;;;;;8.65;6.05;;;;;;;;;;143734;574;45021;-59
2022/01/23 11:39:38;;;;;;;5.82;4.03;;;;;;;;;;143737;574;46010;-59
2022/01/23 11:53:50;;;;;;;6.87;4.75;;;;;;;;;;143732;703;47023;-58
2022/01/23 11:56:47;;;;;;;6.93;4.65;;;;;;;;;;143734;582;46010;-58
2022/01/23 11:59:28;;;;;;;5.45;3.22;;;;;;;;;;143735;569;45022;-58
2022/01/23 12:02:22;;;;;;;5.25;3.60;;;;;;;;;;143739;649;46020;-58
2022/01/23 12:05:25;;;;;;;3.70;3.00;;;;;;;;;;143733;592;47022;-58
2022/01/23 12:08:19;;;;;;;5.82;3.70;;;;;;;;;;143733;586;47010;-57
2022/01/23 12:17:03;;;;;;;5.53;3.90;;;;;;;;;;143737;628;45023;-57
2022/01/23 12:19:42;;;;;;;5.75;3.83;;;;;;;;;;143735;564;46010;-58
2022/01/23 12:22:43;;;;;;;6.22;4.20;;;;;;;;;;143736;578;45021;-57
2022/01/23 12:25:28;;;;;;;5.15;3.53;;;;;;;;;;143739;572;46010;-57
2022/01/23 12:28:32;;;;;;;4.00;3.20;;;;;;;;;;143733;565;47021;-57
2022/01/23 12:31:23;;;;;;;5.62;3.40;;;;;;;;;;143730;621;47010;-57
2022/01/23 12:33:53;;;;;;;4.32;3.25;;;;;;;;;;143734;574;45020;-57
2022/01/23 12:36:26;;;;;;;3.72;3.17;;;;;;;;;;143737;601;46011;-57
2022/01/23 12:39:27;;;;;;;4.35;3.20;;;;;;;;;;143732;569;47023;-57
2022/01/23 12:41:59;;;;;;;4.47;3.30;;;;;;;;;;143731;588;47010;-57
2022/01/23 12:44:37;;;;;;;5.93;3.55;;;;;;;;;;143733;567;45021;-57
2022/01/23 12:47:07;;;;;;;6.12;3.83;;;;;;;;;;143736;569;46012;-57
2022/01/23 12:49:37;;;;;;;5.70;4.07;;;;;;;;;;143733;592;47022;-57
2022/01/23 12:52:22;;;;;;;6.12;3.72;;;;;;;;;;143735;581;46011;-57
2022/01/23 12:55:00;;;;;;;6.97;4.60;;;;;;;;;;143735;570;45022;-57
2022/01/23 12:57:38;;;;;;;5.20;4.00;;;;;;;;;;143739;573;46010;-56
2022/01/23 13:00:28;;;;;;;4.70;3.70;;;;;;;;;;143732;575;47023;-57
2022/01/23 13:02:56;;;;;;;5.07;3.65;;;;;;;;;;143735;577;46010;-57
2022/01/23 13:05:23;;;;;;;6.45;3.90;;;;;;;;;;143732;564;47909;-57
2022/01/23 13:08:06;;;;;;;4.95;3.95;;;;;;;;;;143738;656;46010;-57
2022/01/23 13:13:49;;;;;;;5.32;3.70;;;;;;;;;;143735;566;46010;-56
2022/01/23 13:19:34;;;;;;;8.07;4.87;;;;;;;;;;143739;625;46018;-57
2022/01/23 13:30:21;;;;;;;5.30;4.00;;;;;;;;;;143736;596;46010;-56
2022/01/23 13:32:50;;;;;;;5.20;3.78;;;;;;;;;;143733;633;47022;-56
2022/01/23 13:35:21;;;;;;;4.93;3.62;;;;;;;;;;143735;595;46011;-57
2022/01/23 13:37:59;;;;;;;6.28;4.03;;;;;;;;;;143734;633;45021;-57
2022/01/23 13:40:36;;;;;;;5.05;3.85;;;;;;;;;;143739;564;46010;-57
2022/01/23 13:51:42;;;;;;;7.07;3.85;;;;;;;;;;143737;580;47021;-57
2022/01/23 13:57:31;;;;;;;4.65;3.72;;;;;;;;;;143735;603;47020;-56
2022/01/23 14:00:16;;;;;;;5.25;3.67;;;;;;;;;;143735;573;46012;-57
2022/01/23 14:02:48;;;;;;;5.30;3.75;;;;;;;;;;143738;629;46020;-56
2022/01/23 14:05:28;;;;;;;4.80;3.47;;;;;;;;;;143734;583;47021;-57
2022/01/23 14:07:57;;;;;;;3.75;3.25;;;;;;;;;;143734;575;47010;-56
2022/01/23 14:10:30;;;;;;;5.72;4.28;;;;;;;;;;143734;591;45020;-57
2022/01/23 14:13:14;;;;;;;6.68;4.72;;;;;;;;;;143739;569;46020;-57
2022/01/23 14:15:49;;;;;;;5.43;4.18;;;;;;;;;;143735;609;47020;-56
2022/01/23 14:18:34;;;;;;;5.43;4.12;;;;;;;;;;143736;588;46010;-57
2022/01/23 14:21:06;;;;;;;6.60;4.10;;;;;;;;;;143735;683;45021;-57
2022/01/23 14:23:36;;;;;;;4.82;3.90;;;;;;;;;;143738;620;46020;-56
2022/01/23 14:26:13;;;;;;;5.72;4.05;;;;;;;;;;143734;600;47022;-57
2022/01/23 14:28:46;;;;;;;5.87;4.45;;;;;;;;;;143735;564;46010;-57
2022/01/23 14:31:20;;;;;;;5.62;3.97;;;;;;;;;;143734;581;45020;-57
2022/01/23 14:33:51;;;;;;;5.87;4.00;;;;;;;;;;143739;569;46010;-57
2022/01/23 14:36:21;;;;;;;7.62;4.30;;;;;;;;;;143734;663;47021;-57
2022/01/23 14:39:14;;;;;;;5.60;3.92;;;;;;;;;;143737;596;46010;-57
2022/01/23 14:41:43;;;;;;;6.85;4.03;;;;;;;;;;143735;572;45022;-57
2022/01/23 14:44:27;;;;;;;5.68;4.25;;;;;;;;;;143739;634;46011;-57
2022/01/23 14:46:58;;;;;;;5.15;3.58;;;;;;;;;;143734;613;47022;-57
2022/01/23 14:49:28;;;;;;;5.03;3.92;;;;;;;;;;143736;608;46011;-57
2022/01/23 14:51:57;;;;;;;5.57;4.22;;;;;;;;;;143734;612;45021;-57
2022/01/23 14:54:26;;;;;;;5.95;3.95;;;;;;;;;;143740;576;46010;-57
2022/01/23 14:56:53;;;;;;;7.43;4.10;;;;;;;;;;143735;566;47020;-57
2022/01/23 14:59:20;;;;;;;5.68;3.70;;;;;;;;;;143732;571;47010;-57
2022/01/23 15:01:47;;;;;;;6.82;3.97;;;;;;;;;;143735;687;45020;-57
2022/01/23 15:04:15;;;;;;;7.12;4.12;;;;;;;;;;143739;578;46010;-57
2022/01/23 15:06:47;;;;;;;5.45;3.95;;;;;;;;;;143736;604;47020;-57
2022/01/23 15:09:16;;;;;;;5.22;3.92;;;;;;;;;;143735;591;47010;-57
2022/01/23 15:11:44;;;;;;;7.53;5.22;;;;;;;;;;143737;581;45020;-57
2022/01/23 15:14:11;;;;;;;5.53;4.03;;;;;;;;;;143740;569;46021;-57
2022/01/23 15:16:40;;;;;;;5.90;4.30;;;;;;;;;;143733;569;47022;-57
2022/01/23 15:19:08;;;;;;;5.25;3.80;;;;;;;;;;143735;619;46010;-55
2022/01/23 15:21:36;;;;;;;4.50;3.87;;;;;;;;;;143736;569;46010;-56
2022/01/23 15:24:04;;;;;;;5.03;3.60;;;;;;;;;;143740;566;46010;-56
2022/01/23 15:26:34;;;;;;;9.88;4.15;;;;;;;;;;143734;582;48020;-56
2022/01/23 15:29:01;;;;;;;7.97;4.15;;;;;;;;;;143734;585;47020;-56
2022/01/23 15:31:28;;;;;;;6.60;4.22;;;;;;;;;;143737;569;45020;-56
2022/01/23 15:33:55;;;;;;;5.43;3.90;;;;;;;;;;143740;565;46020;-56
2022/01/23 15:36:22;;;;;;;6.32;4.32;;;;;;;;;;143735;572;47021;-56
2022/01/23 15:38:49;;;;;;;6.95;4.50;;;;;;;;;;143737;571;46010;-56
2022/01/23 15:41:17;;;;;;;4.82;3.70;;;;;;;;;;143736;600;45020;-56
2022/01/23 15:43:44;;;;;;;5.80;4.00;;;;;;;;;;143740;567;46021;-56
2022/01/23 15:46:13;;;;;;;5.45;4.00;;;;;;;;;;143734;567;47020;-56
2022/01/23 15:48:41;;;;;;;9.20;4.18;;;;;;;;;;143737;571;46010;-56
2022/01/23 15:51:08;;;;;;;5.50;4.12;;;;;;;;;;143736;605;45021;-56
2022/01/23 15:53:35;;;;;;;6.25;4.45;;;;;;;;;;143741;590;46020;-56
2022/01/23 15:56:04;;;;;;;5.37;3.80;;;;;;;;;;143735;563;47020;-55
2022/01/23 15:58:31;;;;;;;7.80;4.60;;;;;;;;;;143736;577;46010;-56
2022/01/23 16:00:59;;;;;;;5.28;3.90;;;;;;;;;;143735;660;45020;-56
2022/01/23 16:03:27;;;;;;;6.25;4.25;;;;;;;;;;143738;566;46010;-56
2022/01/23 16:05:56;;;;;;;5.95;4.43;;;;;;;;;;143736;587;47020;-56
2022/01/23 16:08:23;;;;;;;4.50;3.62;;;;;;;;;;143736;605;46010;-56
2022/01/23 16:10:51;;;;;;;5.75;4.07;;;;;;;;;;143736;565;45020;-56
2022/01/23 16:13:18;;;;;;;6.03;4.47;;;;;;;;;;143739;602;46010;-55
2022/01/23 16:15:45;;;;;;;6.93;4.10;;;;;;;;;;143734;640;47032;-56
2022/01/23 16:18:12;;;;;;;6.62;4.50;;;;;;;;;;143734;623;46010;-56
2022/01/23 16:20:41;;;;;;;5.90;4.10;;;;;;;;;;143735;676;45021;-56
2022/01/23 16:23:08;;;;;;;5.93;4.15;;;;;;;;;;143738;564;46028;-56
2022/01/23 16:25:35;;;;;;;6.35;4.03;;;;;;;;;;143733;599;47022;-56
2022/01/23 16:28:03;;;;;;;7.00;4.57;;;;;;;;;;143736;662;46010;-56
2022/01/23 16:30:52;;;;;;;7.43;4.60;;;;;;;;;;143736;644;45020;-56
2022/01/23 16:33:20;;;;;;;5.18;4.20;;;;;;;;;;143738;580;47020;-56
2022/01/23 16:35:47;;;;;;;8.18;4.82;;;;;;;;;;143734;732;47023;-56
2022/01/23 16:38:14;;;;;;;6.70;4.60;;;;;;;;;;143735;697;46010;-55
2022/01/23 16:40:46;;;;;;;7.60;4.30;;;;;;;;;;143736;564;45020;-56
2022/01/23 16:43:15;;;;;;;7.03;4.68;;;;;;;;;;143738;604;46021;-56
2022/01/23 16:45:43;;;;;;;5.93;4.18;;;;;;;;;;143734;606;47020;-56
2022/01/23 16:48:10;;;;;;;9.50;4.70;;;;;;;;;;143736;677;46010;-56
2022/01/23 16:50:38;;;;;;;7.70;4.65;;;;;;;;;;143735;583;45021;-56
2022/01/23 16:53:06;;;;;;;6.78;4.45;;;;;;;;;;143739;570;46020;-56
2022/01/23 16:55:33;;;;;;;6.65;4.68;;;;;;;;;;143735;614;47020;-56
2022/01/23 16:58:01;;;;;;;7.60;5.32;;;;;;;;;;143734;597;46018;-56
2022/01/23 17:00:28;;;;;;;7.57;5.40;;;;;;;;;;143735;573;45020;-56
2022/01/23 17:02:55;;;;;;;7.70;5.00;;;;;;;;;;143739;579;46010;-56
2022/01/23 17:05:22;;;;;;;7.18;4.90;;;;;;;;;;143736;579;47020;-57
2022/01/23 17:07:49;;;;;;;6.30;4.30;;;;;;;;;;143738;590;46010;-56
2022/01/23 17:10:16;;;;;;;9.65;5.47;;;;;;;;;;143737;569;45020;-57
2022/01/23 17:12:43;;;;;;;8.27;4.95;;;;;;;;;;143738;573;46021;-56
2022/01/23 17:15:10;;;;;;;8.07;4.93;;;;;;;;;;143734;602;47022;-56
2022/01/23 17:17:37;;;;;;;8.10;4.85;;;;;;;;;;143737;602;46010;-56
2022/01/23 17:20:05;;;;;;;8.93;5.10;;;;;;;;;;143737;577;45021;-56
2022/01/23 17:22:32;;;;;;;9.02;5.20;;;;;;;;;;143740;605;46010;-56
2022/01/23 17:25:00;;;;;;;11.25;4.72;;;;;;;;;;143734;565;47020;-56
2022/01/23 17:27:27;;;;;;;11.23;5.37;;;;;;;;;;143735;564;47010;-57
2022/01/23 17:29:54;;;;;;;8.68;4.78;;;;;;;;;;143736;664;45020;-55
2022/01/23 17:32:21;;;;;;;5.70;4.60;;;;;;;;;;143739;577;46020;-56
2022/01/23 17:34:49;;;;;;;6.30;4.18;;;;;;;;;;143732;597;48021;-56
2022/01/23 17:37:15;;;;;;;9.82;4.35;;;;;;;;;;143735;597;46010;-56
2022/01/23 17:39:43;;;;;;;8.45;4.60;;;;;;;;;;143736;617;45020;-56
2022/01/23 17:42:11;;;;;;;7.90;4.62;;;;;;;;;;143739;649;46021;-55
2022/01/23 17:44:43;;;;;;;8.02;4.70;;;;;;;;;;143732;577;47020;-56
2022/01/23 17:47:32;;;;;;;7.93;4.65;;;;;;;;;;143732;577;47010;-55
2022/01/23 17:50:20;;;;;;;7.62;4.57;;;;;;;;;;143734;698;45021;-56
2022/01/23 17:52:52;;;;;;;10.15;5.22;;;;;;;;;;143739;585;46010;-56
2022/01/23 17:55:19;;;;;;;9.43;5.30;;;;;;;;;;143735;584;47020;-56
2022/01/23 17:57:46;;;;;;;9.13;4.87;;;;;;;;;;143735;564;46020;-56
2022/01/23 18:00:14;;;;;;;6.60;4.15;;;;;;;;;;143735;589;46012;-55
2022/01/23 18:02:42;;;;;;;7.05;4.68;;;;;;;;;;143739;570;46010;-56
2022/01/23 18:05:10;;;;;;;9.95;5.37;;;;;;;;;;143737;588;47021;-55
2022/01/23 18:07:38;;;;;;;7.72;4.90;;;;;;;;;;143734;597;46010;-56
2022/01/23 18:10:08;;;;;;;7.75;4.70;;;;;;;;;;143735;580;45020;-55